<?xml version="1.0" encoding="UTF-8" ?>
<gpx version="1.1" xmlns:xsi="http://www.w3.org/2001/XMLSchema-instance" 
    xmlns="http://www.topografix.com/GPX/1/1" 
    xsi:schemaLocation="http://www.topografix.com/GPX/1/1 http://www.topografix.com/GPX/1/1/gpx.xsd" 
    creator="Openrunner - https://www.openrunner.com" >	<trk>
						<name>10300052-VTT-Bussang-Circuit 6-Le Sauté</name>
						<trkseg>
					<trkpt lat="47.884210" lon="6.854910">
						<ele>599</ele>
						<time>2019-07-30T10:03:58Z</time>
					</trkpt>
					<trkpt lat="47.884250" lon="6.854810">
						<ele>599</ele>
						<time>2019-07-30T10:04:00Z</time>
					</trkpt>
					<trkpt lat="47.884390" lon="6.854800">
						<ele>598</ele>
						<time>2019-07-30T10:04:03Z</time>
					</trkpt>
					<trkpt lat="47.884450" lon="6.854630">
						<ele>598</ele>
						<time>2019-07-30T10:04:06Z</time>
					</trkpt>
					<trkpt lat="47.884600" lon="6.854760">
						<ele>598</ele>
						<time>2019-07-30T10:04:10Z</time>
					</trkpt>
					<trkpt lat="47.884850" lon="6.855050">
						<ele>597</ele>
						<time>2019-07-30T10:04:18Z</time>
					</trkpt>
					<trkpt lat="47.885010" lon="6.855060">
						<ele>597</ele>
						<time>2019-07-30T10:04:21Z</time>
					</trkpt>
					<trkpt lat="47.885080" lon="6.855010">
						<ele>597</ele>
						<time>2019-07-30T10:04:23Z</time>
					</trkpt>
					<trkpt lat="47.885140" lon="6.854900">
						<ele>597</ele>
						<time>2019-07-30T10:04:25Z</time>
					</trkpt>
					<trkpt lat="47.885580" lon="6.854380">
						<ele>595</ele>
						<time>2019-07-30T10:04:38Z</time>
					</trkpt>
					<trkpt lat="47.885710" lon="6.854400">
						<ele>595</ele>
						<time>2019-07-30T10:04:41Z</time>
					</trkpt>
					<trkpt lat="47.885790" lon="6.854320">
						<ele>595</ele>
						<time>2019-07-30T10:04:44Z</time>
					</trkpt>
					<trkpt lat="47.886110" lon="6.853850">
						<ele>598</ele>
						<time>2019-07-30T10:04:54Z</time>
					</trkpt>
					<trkpt lat="47.886170" lon="6.853820">
						<ele>599</ele>
						<time>2019-07-30T10:04:56Z</time>
					</trkpt>
					<trkpt lat="47.886240" lon="6.853740">
						<ele>599</ele>
						<time>2019-07-30T10:04:58Z</time>
					</trkpt>
					<trkpt lat="47.886300" lon="6.853780">
						<ele>600</ele>
						<time>2019-07-30T10:04:59Z</time>
					</trkpt>
					<trkpt lat="47.886490" lon="6.854020">
						<ele>600</ele>
						<time>2019-07-30T10:05:05Z</time>
					</trkpt>
					<trkpt lat="47.886740" lon="6.854180">
						<ele>601</ele>
						<time>2019-07-30T10:05:11Z</time>
					</trkpt>
					<trkpt lat="47.886890" lon="6.854320">
						<ele>601</ele>
						<time>2019-07-30T10:05:16Z</time>
					</trkpt>
					<trkpt lat="47.887330" lon="6.854850">
						<ele>601</ele>
						<time>2019-07-30T10:05:29Z</time>
					</trkpt>
					<trkpt lat="47.887670" lon="6.855350">
						<ele>601</ele>
						<time>2019-07-30T10:05:40Z</time>
					</trkpt>
					<trkpt lat="47.887790" lon="6.855540">
						<ele>602</ele>
						<time>2019-07-30T10:05:44Z</time>
					</trkpt>
					<trkpt lat="47.887930" lon="6.855890">
						<ele>601</ele>
						<time>2019-07-30T10:05:50Z</time>
					</trkpt>
					<trkpt lat="47.888150" lon="6.856220">
						<ele>601</ele>
						<time>2019-07-30T10:05:58Z</time>
					</trkpt>
					<trkpt lat="47.888550" lon="6.856970">
						<ele>600</ele>
						<time>2019-07-30T10:06:13Z</time>
					</trkpt>
					<trkpt lat="47.888690" lon="6.857120">
						<ele>601</ele>
						<time>2019-07-30T10:06:17Z</time>
					</trkpt>
					<trkpt lat="47.888870" lon="6.857410">
						<ele>600</ele>
						<time>2019-07-30T10:06:23Z</time>
					</trkpt>
					<trkpt lat="47.889660" lon="6.858510">
						<ele>603</ele>
						<time>2019-07-30T10:06:48Z</time>
					</trkpt>
					<trkpt lat="47.889880" lon="6.858870">
						<ele>604</ele>
						<time>2019-07-30T10:06:56Z</time>
					</trkpt>
					<trkpt lat="47.890190" lon="6.859620">
						<ele>605</ele>
						<time>2019-07-30T10:07:10Z</time>
					</trkpt>
					<trkpt lat="47.890780" lon="6.860790">
						<ele>604</ele>
						<time>2019-07-30T10:07:33Z</time>
					</trkpt>
					<trkpt lat="47.890930" lon="6.861280">
						<ele>605</ele>
						<time>2019-07-30T10:07:41Z</time>
					</trkpt>
					<trkpt lat="47.891100" lon="6.861680">
						<ele>607</ele>
						<time>2019-07-30T10:07:48Z</time>
					</trkpt>
					<trkpt lat="47.891360" lon="6.862020">
						<ele>609</ele>
						<time>2019-07-30T10:07:56Z</time>
					</trkpt>
					<trkpt lat="47.891810" lon="6.862750">
						<ele>612</ele>
						<time>2019-07-30T10:08:12Z</time>
					</trkpt>
					<trkpt lat="47.891880" lon="6.862910">
						<ele>612</ele>
						<time>2019-07-30T10:08:15Z</time>
					</trkpt>
					<trkpt lat="47.891900" lon="6.863020">
						<ele>611</ele>
						<time>2019-07-30T10:08:17Z</time>
					</trkpt>
					<trkpt lat="47.891870" lon="6.863160">
						<ele>610</ele>
						<time>2019-07-30T10:08:19Z</time>
					</trkpt>
					<trkpt lat="47.891820" lon="6.863280">
						<ele>609</ele>
						<time>2019-07-30T10:08:21Z</time>
					</trkpt>
					<trkpt lat="47.891540" lon="6.863660">
						<ele>608</ele>
						<time>2019-07-30T10:08:30Z</time>
					</trkpt>
					<trkpt lat="47.891470" lon="6.863940">
						<ele>608</ele>
						<time>2019-07-30T10:08:35Z</time>
					</trkpt>
					<trkpt lat="47.891460" lon="6.864080">
						<ele>608</ele>
						<time>2019-07-30T10:08:37Z</time>
					</trkpt>
					<trkpt lat="47.891960" lon="6.864880">
						<ele>609</ele>
						<time>2019-07-30T10:08:54Z</time>
					</trkpt>
					<trkpt lat="47.892170" lon="6.865270">
						<ele>609</ele>
						<time>2019-07-30T10:09:02Z</time>
					</trkpt>
					<trkpt lat="47.892350" lon="6.865660">
						<ele>609</ele>
						<time>2019-07-30T10:09:09Z</time>
					</trkpt>
					<trkpt lat="47.892420" lon="6.865870">
						<ele>609</ele>
						<time>2019-07-30T10:09:13Z</time>
					</trkpt>
					<trkpt lat="47.892430" lon="6.865970">
						<ele>609</ele>
						<time>2019-07-30T10:09:15Z</time>
					</trkpt>
					<trkpt lat="47.892530" lon="6.866110">
						<ele>610</ele>
						<time>2019-07-30T10:09:18Z</time>
					</trkpt>
					<trkpt lat="47.892690" lon="6.866740">
						<ele>613</ele>
						<time>2019-07-30T10:09:28Z</time>
					</trkpt>
					<trkpt lat="47.892830" lon="6.867480">
						<ele>616</ele>
						<time>2019-07-30T10:09:40Z</time>
					</trkpt>
					<trkpt lat="47.892980" lon="6.868030">
						<ele>616</ele>
						<time>2019-07-30T10:09:50Z</time>
					</trkpt>
					<trkpt lat="47.893060" lon="6.868240">
						<ele>615</ele>
						<time>2019-07-30T10:09:53Z</time>
					</trkpt>
					<trkpt lat="47.893590" lon="6.868720">
						<ele>616</ele>
						<time>2019-07-30T10:10:08Z</time>
					</trkpt>
					<trkpt lat="47.893830" lon="6.868870">
						<ele>616</ele>
						<time>2019-07-30T10:10:14Z</time>
					</trkpt>
					<trkpt lat="47.893770" lon="6.868970">
						<ele>616</ele>
						<time>2019-07-30T10:10:16Z</time>
					</trkpt>
					<trkpt lat="47.893760" lon="6.869110">
						<ele>616</ele>
						<time>2019-07-30T10:10:18Z</time>
					</trkpt>
					<trkpt lat="47.893820" lon="6.869610">
						<ele>616</ele>
						<time>2019-07-30T10:10:26Z</time>
					</trkpt>
					<trkpt lat="47.893930" lon="6.870050">
						<ele>617</ele>
						<time>2019-07-30T10:10:34Z</time>
					</trkpt>
					<trkpt lat="47.894100" lon="6.870530">
						<ele>616</ele>
						<time>2019-07-30T10:10:42Z</time>
					</trkpt>
					<trkpt lat="47.894300" lon="6.871300">
						<ele>616</ele>
						<time>2019-07-30T10:10:55Z</time>
					</trkpt>
					<trkpt lat="47.894720" lon="6.871990">
						<ele>616</ele>
						<time>2019-07-30T10:11:10Z</time>
					</trkpt>
					<trkpt lat="47.894090" lon="6.872240">
						<ele>617</ele>
						<time>2019-07-30T10:11:25Z</time>
					</trkpt>
					<trkpt lat="47.893660" lon="6.872470">
						<ele>620</ele>
						<time>2019-07-30T10:11:36Z</time>
					</trkpt>
					<trkpt lat="47.893380" lon="6.872710">
						<ele>624</ele>
						<time>2019-07-30T10:11:43Z</time>
					</trkpt>
					<trkpt lat="47.893280" lon="6.872760">
						<ele>625</ele>
						<time>2019-07-30T10:11:46Z</time>
					</trkpt>
					<trkpt lat="47.893160" lon="6.872760">
						<ele>625</ele>
						<time>2019-07-30T10:11:48Z</time>
					</trkpt>
					<trkpt lat="47.892750" lon="6.872610">
						<ele>624</ele>
						<time>2019-07-30T10:11:58Z</time>
					</trkpt>
					<trkpt lat="47.892700" lon="6.872670">
						<ele>625</ele>
						<time>2019-07-30T10:12:00Z</time>
					</trkpt>
					<trkpt lat="47.892780" lon="6.872790">
						<ele>626</ele>
						<time>2019-07-30T10:12:02Z</time>
					</trkpt>
					<trkpt lat="47.892900" lon="6.873100">
						<ele>628</ele>
						<time>2019-07-30T10:12:08Z</time>
					</trkpt>
					<trkpt lat="47.893010" lon="6.873250">
						<ele>630</ele>
						<time>2019-07-30T10:12:11Z</time>
					</trkpt>
					<trkpt lat="47.893800" lon="6.873600">
						<ele>632</ele>
						<time>2019-07-30T10:12:31Z</time>
					</trkpt>
					<trkpt lat="47.894200" lon="6.873840">
						<ele>633</ele>
						<time>2019-07-30T10:12:41Z</time>
					</trkpt>
					<trkpt lat="47.894590" lon="6.874110">
						<ele>632</ele>
						<time>2019-07-30T10:12:51Z</time>
					</trkpt>
					<trkpt lat="47.894920" lon="6.874770">
						<ele>637</ele>
						<time>2019-07-30T10:13:04Z</time>
					</trkpt>
					<trkpt lat="47.895020" lon="6.874930">
						<ele>637</ele>
						<time>2019-07-30T10:13:07Z</time>
					</trkpt>
					<trkpt lat="47.895330" lon="6.875240">
						<ele>641</ele>
						<time>2019-07-30T10:13:16Z</time>
					</trkpt>
					<trkpt lat="47.895660" lon="6.875830">
						<ele>649</ele>
						<time>2019-07-30T10:13:28Z</time>
					</trkpt>
					<trkpt lat="47.896420" lon="6.876470">
						<ele>649</ele>
						<time>2019-07-30T10:13:48Z</time>
					</trkpt>
					<trkpt lat="47.896860" lon="6.876990">
						<ele>653</ele>
						<time>2019-07-30T10:14:01Z</time>
					</trkpt>
					<trkpt lat="47.897540" lon="6.877470">
						<ele>653</ele>
						<time>2019-07-30T10:14:19Z</time>
					</trkpt>
					<trkpt lat="47.897900" lon="6.877620">
						<ele>652</ele>
						<time>2019-07-30T10:14:28Z</time>
					</trkpt>
					<trkpt lat="47.898180" lon="6.877700">
						<ele>650</ele>
						<time>2019-07-30T10:14:34Z</time>
					</trkpt>
					<trkpt lat="47.898660" lon="6.877920">
						<ele>649</ele>
						<time>2019-07-30T10:14:46Z</time>
					</trkpt>
					<trkpt lat="47.899020" lon="6.878210">
						<ele>650</ele>
						<time>2019-07-30T10:14:56Z</time>
					</trkpt>
					<trkpt lat="47.899320" lon="6.878530">
						<ele>651</ele>
						<time>2019-07-30T10:15:04Z</time>
					</trkpt>
					<trkpt lat="47.899440" lon="6.878700">
						<ele>653</ele>
						<time>2019-07-30T10:15:08Z</time>
					</trkpt>
					<trkpt lat="47.899940" lon="6.879210">
						<ele>650</ele>
						<time>2019-07-30T10:15:22Z</time>
					</trkpt>
					<trkpt lat="47.900090" lon="6.879400">
						<ele>651</ele>
						<time>2019-07-30T10:15:27Z</time>
					</trkpt>
					<trkpt lat="47.900540" lon="6.880200">
						<ele>653</ele>
						<time>2019-07-30T10:15:43Z</time>
					</trkpt>
					<trkpt lat="47.901390" lon="6.881470">
						<ele>654</ele>
						<time>2019-07-30T10:16:11Z</time>
					</trkpt>
					<trkpt lat="47.901720" lon="6.881920">
						<ele>651</ele>
						<time>2019-07-30T10:16:22Z</time>
					</trkpt>
					<trkpt lat="47.901900" lon="6.882120">
						<ele>653</ele>
						<time>2019-07-30T10:16:27Z</time>
					</trkpt>
					<trkpt lat="47.902260" lon="6.882430">
						<ele>654</ele>
						<time>2019-07-30T10:16:37Z</time>
					</trkpt>
					<trkpt lat="47.902570" lon="6.883110">
						<ele>656</ele>
						<time>2019-07-30T10:16:50Z</time>
					</trkpt>
					<trkpt lat="47.902720" lon="6.883160">
						<ele>659</ele>
						<time>2019-07-30T10:16:53Z</time>
					</trkpt>
					<trkpt lat="47.902880" lon="6.883100">
						<ele>662</ele>
						<time>2019-07-30T10:16:57Z</time>
					</trkpt>
					<trkpt lat="47.902910" lon="6.882990">
						<ele>662</ele>
						<time>2019-07-30T10:16:59Z</time>
					</trkpt>
					<trkpt lat="47.902940" lon="6.882530">
						<ele>663</ele>
						<time>2019-07-30T10:17:06Z</time>
					</trkpt>
					<trkpt lat="47.902940" lon="6.881820">
						<ele>667</ele>
						<time>2019-07-30T10:17:17Z</time>
					</trkpt>
					<trkpt lat="47.902890" lon="6.881510">
						<ele>669</ele>
						<time>2019-07-30T10:17:22Z</time>
					</trkpt>
					<trkpt lat="47.902780" lon="6.881150">
						<ele>671</ele>
						<time>2019-07-30T10:17:28Z</time>
					</trkpt>
					<trkpt lat="47.902580" lon="6.880530">
						<ele>675</ele>
						<time>2019-07-30T10:17:39Z</time>
					</trkpt>
					<trkpt lat="47.902040" lon="6.879160">
						<ele>679</ele>
						<time>2019-07-30T10:18:04Z</time>
					</trkpt>
					<trkpt lat="47.901640" lon="6.877930">
						<ele>693</ele>
						<time>2019-07-30T10:18:25Z</time>
					</trkpt>
					<trkpt lat="47.900760" lon="6.875980">
						<ele>696</ele>
						<time>2019-07-30T10:19:02Z</time>
					</trkpt>
					<trkpt lat="47.900280" lon="6.875090">
						<ele>693</ele>
						<time>2019-07-30T10:19:20Z</time>
					</trkpt>
					<trkpt lat="47.900200" lon="6.874870">
						<ele>691</ele>
						<time>2019-07-30T10:19:24Z</time>
					</trkpt>
					<trkpt lat="47.900200" lon="6.874580">
						<ele>691</ele>
						<time>2019-07-30T10:19:29Z</time>
					</trkpt>
					<trkpt lat="47.900470" lon="6.874160">
						<ele>699</ele>
						<time>2019-07-30T10:19:38Z</time>
					</trkpt>
					<trkpt lat="47.900620" lon="6.874020">
						<ele>700</ele>
						<time>2019-07-30T10:19:42Z</time>
					</trkpt>
					<trkpt lat="47.900860" lon="6.873870">
						<ele>702</ele>
						<time>2019-07-30T10:19:48Z</time>
					</trkpt>
					<trkpt lat="47.901550" lon="6.873710">
						<ele>709</ele>
						<time>2019-07-30T10:20:04Z</time>
					</trkpt>
					<trkpt lat="47.902130" lon="6.873770">
						<ele>719</ele>
						<time>2019-07-30T10:20:18Z</time>
					</trkpt>
					<trkpt lat="47.903750" lon="6.873630">
						<ele>737</ele>
						<time>2019-07-30T10:20:56Z</time>
					</trkpt>
					<trkpt lat="47.905020" lon="6.873850">
						<ele>749</ele>
						<time>2019-07-30T10:21:26Z</time>
					</trkpt>
					<trkpt lat="47.905420" lon="6.873810">
						<ele>751</ele>
						<time>2019-07-30T10:21:35Z</time>
					</trkpt>
					<trkpt lat="47.905610" lon="6.873630">
						<ele>750</ele>
						<time>2019-07-30T10:21:40Z</time>
					</trkpt>
					<trkpt lat="47.905630" lon="6.873440">
						<ele>747</ele>
						<time>2019-07-30T10:21:43Z</time>
					</trkpt>
					<trkpt lat="47.905400" lon="6.872950">
						<ele>748</ele>
						<time>2019-07-30T10:21:53Z</time>
					</trkpt>
					<trkpt lat="47.904840" lon="6.872060">
						<ele>754</ele>
						<time>2019-07-30T10:22:12Z</time>
					</trkpt>
					<trkpt lat="47.904320" lon="6.871170">
						<ele>765</ele>
						<time>2019-07-30T10:22:30Z</time>
					</trkpt>
					<trkpt lat="47.904110" lon="6.870870">
						<ele>766</ele>
						<time>2019-07-30T10:22:37Z</time>
					</trkpt>
					<trkpt lat="47.903900" lon="6.870460">
						<ele>771</ele>
						<time>2019-07-30T10:22:45Z</time>
					</trkpt>
					<trkpt lat="47.903760" lon="6.870120">
						<ele>775</ele>
						<time>2019-07-30T10:22:51Z</time>
					</trkpt>
					<trkpt lat="47.903460" lon="6.869650">
						<ele>779</ele>
						<time>2019-07-30T10:23:01Z</time>
					</trkpt>
					<trkpt lat="47.902860" lon="6.868970">
						<ele>786</ele>
						<time>2019-07-30T10:23:19Z</time>
					</trkpt>
					<trkpt lat="47.902560" lon="6.868780">
						<ele>784</ele>
						<time>2019-07-30T10:23:27Z</time>
					</trkpt>
					<trkpt lat="47.902150" lon="6.868470">
						<ele>782</ele>
						<time>2019-07-30T10:23:37Z</time>
					</trkpt>
					<trkpt lat="47.902020" lon="6.868260">
						<ele>785</ele>
						<time>2019-07-30T10:23:42Z</time>
					</trkpt>
					<trkpt lat="47.901740" lon="6.868020">
						<ele>784</ele>
						<time>2019-07-30T10:23:49Z</time>
					</trkpt>
					<trkpt lat="47.901440" lon="6.867930">
						<ele>784</ele>
						<time>2019-07-30T10:23:57Z</time>
					</trkpt>
					<trkpt lat="47.901130" lon="6.867870">
						<ele>785</ele>
						<time>2019-07-30T10:24:04Z</time>
					</trkpt>
					<trkpt lat="47.900830" lon="6.868000">
						<ele>783</ele>
						<time>2019-07-30T10:24:11Z</time>
					</trkpt>
					<trkpt lat="47.900500" lon="6.868200">
						<ele>780</ele>
						<time>2019-07-30T10:24:19Z</time>
					</trkpt>
					<trkpt lat="47.900240" lon="6.868310">
						<ele>781</ele>
						<time>2019-07-30T10:24:26Z</time>
					</trkpt>
					<trkpt lat="47.900050" lon="6.868200">
						<ele>783</ele>
						<time>2019-07-30T10:24:31Z</time>
					</trkpt>
					<trkpt lat="47.899910" lon="6.867820">
						<ele>784</ele>
						<time>2019-07-30T10:24:37Z</time>
					</trkpt>
					<trkpt lat="47.899910" lon="6.867430">
						<ele>786</ele>
						<time>2019-07-30T10:24:43Z</time>
					</trkpt>
					<trkpt lat="47.899980" lon="6.866800">
						<ele>792</ele>
						<time>2019-07-30T10:24:53Z</time>
					</trkpt>
					<trkpt lat="47.900060" lon="6.866360">
						<ele>794</ele>
						<time>2019-07-30T10:25:01Z</time>
					</trkpt>
					<trkpt lat="47.900210" lon="6.865890">
						<ele>799</ele>
						<time>2019-07-30T10:25:09Z</time>
					</trkpt>
					<trkpt lat="47.900420" lon="6.865470">
						<ele>804</ele>
						<time>2019-07-30T10:25:17Z</time>
					</trkpt>
					<trkpt lat="47.900510" lon="6.865180">
						<ele>806</ele>
						<time>2019-07-30T10:25:22Z</time>
					</trkpt>
					<trkpt lat="47.900530" lon="6.864770">
						<ele>806</ele>
						<time>2019-07-30T10:25:28Z</time>
					</trkpt>
					<trkpt lat="47.900610" lon="6.864030">
						<ele>808</ele>
						<time>2019-07-30T10:25:40Z</time>
					</trkpt>
					<trkpt lat="47.900600" lon="6.863480">
						<ele>809</ele>
						<time>2019-07-30T10:25:49Z</time>
					</trkpt>
					<trkpt lat="47.900630" lon="6.863130">
						<ele>811</ele>
						<time>2019-07-30T10:25:54Z</time>
					</trkpt>
					<trkpt lat="47.900770" lon="6.862600">
						<ele>816</ele>
						<time>2019-07-30T10:26:03Z</time>
					</trkpt>
					<trkpt lat="47.900950" lon="6.862400">
						<ele>821</ele>
						<time>2019-07-30T10:26:08Z</time>
					</trkpt>
					<trkpt lat="47.901010" lon="6.861570">
						<ele>820</ele>
						<time>2019-07-30T10:26:21Z</time>
					</trkpt>
					<trkpt lat="47.900950" lon="6.861400">
						<ele>819</ele>
						<time>2019-07-30T10:26:24Z</time>
					</trkpt>
					<trkpt lat="47.900550" lon="6.861100">
						<ele>819</ele>
						<time>2019-07-30T10:26:35Z</time>
					</trkpt>
					<trkpt lat="47.900390" lon="6.861020">
						<ele>819</ele>
						<time>2019-07-30T10:26:39Z</time>
					</trkpt>
					<trkpt lat="47.900210" lon="6.861010">
						<ele>819</ele>
						<time>2019-07-30T10:26:43Z</time>
					</trkpt>
					<trkpt lat="47.900020" lon="6.860930">
						<ele>820</ele>
						<time>2019-07-30T10:26:48Z</time>
					</trkpt>
					<trkpt lat="47.899810" lon="6.860950">
						<ele>820</ele>
						<time>2019-07-30T10:26:53Z</time>
					</trkpt>
					<trkpt lat="47.899730" lon="6.860860">
						<ele>822</ele>
						<time>2019-07-30T10:26:55Z</time>
					</trkpt>
					<trkpt lat="47.899550" lon="6.860820">
						<ele>823</ele>
						<time>2019-07-30T10:26:59Z</time>
					</trkpt>
					<trkpt lat="47.899120" lon="6.860820">
						<ele>823</ele>
						<time>2019-07-30T10:27:09Z</time>
					</trkpt>
					<trkpt lat="47.898900" lon="6.860890">
						<ele>821</ele>
						<time>2019-07-30T10:27:14Z</time>
					</trkpt>
					<trkpt lat="47.898490" lon="6.861070">
						<ele>818</ele>
						<time>2019-07-30T10:27:24Z</time>
					</trkpt>
					<trkpt lat="47.898340" lon="6.861060">
						<ele>818</ele>
						<time>2019-07-30T10:27:28Z</time>
					</trkpt>
					<trkpt lat="47.898250" lon="6.860970">
						<ele>818</ele>
						<time>2019-07-30T10:27:30Z</time>
					</trkpt>
					<trkpt lat="47.898190" lon="6.860800">
						<ele>820</ele>
						<time>2019-07-30T10:27:33Z</time>
					</trkpt>
					<trkpt lat="47.898160" lon="6.860570">
						<ele>821</ele>
						<time>2019-07-30T10:27:37Z</time>
					</trkpt>
					<trkpt lat="47.898150" lon="6.859760">
						<ele>827</ele>
						<time>2019-07-30T10:27:50Z</time>
					</trkpt>
					<trkpt lat="47.898210" lon="6.859310">
						<ele>831</ele>
						<time>2019-07-30T10:27:57Z</time>
					</trkpt>
					<trkpt lat="47.898050" lon="6.858590">
						<ele>831</ele>
						<time>2019-07-30T10:28:09Z</time>
					</trkpt>
					<trkpt lat="47.897940" lon="6.857850">
						<ele>833</ele>
						<time>2019-07-30T10:28:21Z</time>
					</trkpt>
					<trkpt lat="47.897790" lon="6.857260">
						<ele>832</ele>
						<time>2019-07-30T10:28:31Z</time>
					</trkpt>
					<trkpt lat="47.897640" lon="6.856290">
						<ele>834</ele>
						<time>2019-07-30T10:28:46Z</time>
					</trkpt>
					<trkpt lat="47.897630" lon="6.855950">
						<ele>836</ele>
						<time>2019-07-30T10:28:52Z</time>
					</trkpt>
					<trkpt lat="47.897510" lon="6.855290">
						<ele>841</ele>
						<time>2019-07-30T10:29:02Z</time>
					</trkpt>
					<trkpt lat="47.897400" lon="6.854930">
						<ele>842</ele>
						<time>2019-07-30T10:29:08Z</time>
					</trkpt>
					<trkpt lat="47.897210" lon="6.854500">
						<ele>841</ele>
						<time>2019-07-30T10:29:17Z</time>
					</trkpt>
					<trkpt lat="47.896680" lon="6.852970">
						<ele>838</ele>
						<time>2019-07-30T10:29:43Z</time>
					</trkpt>
					<trkpt lat="47.896450" lon="6.851940">
						<ele>836</ele>
						<time>2019-07-30T10:30:00Z</time>
					</trkpt>
					<trkpt lat="47.896390" lon="6.851720">
						<ele>836</ele>
						<time>2019-07-30T10:30:04Z</time>
					</trkpt>
					<trkpt lat="47.896290" lon="6.851510">
						<ele>834</ele>
						<time>2019-07-30T10:30:08Z</time>
					</trkpt>
					<trkpt lat="47.896210" lon="6.851200">
						<ele>834</ele>
						<time>2019-07-30T10:30:13Z</time>
					</trkpt>
					<trkpt lat="47.895900" lon="6.850670">
						<ele>833</ele>
						<time>2019-07-30T10:30:24Z</time>
					</trkpt>
					<trkpt lat="47.895620" lon="6.850460">
						<ele>832</ele>
						<time>2019-07-30T10:30:32Z</time>
					</trkpt>
					<trkpt lat="47.895330" lon="6.850310">
						<ele>832</ele>
						<time>2019-07-30T10:30:39Z</time>
					</trkpt>
					<trkpt lat="47.894990" lon="6.850210">
						<ele>830</ele>
						<time>2019-07-30T10:30:47Z</time>
					</trkpt>
					<trkpt lat="47.894390" lon="6.850130">
						<ele>832</ele>
						<time>2019-07-30T10:31:01Z</time>
					</trkpt>
					<trkpt lat="47.894030" lon="6.850440">
						<ele>820</ele>
						<time>2019-07-30T10:31:11Z</time>
					</trkpt>
					<trkpt lat="47.893430" lon="6.850690">
						<ele>809</ele>
						<time>2019-07-30T10:31:25Z</time>
					</trkpt>
					<trkpt lat="47.893040" lon="6.850740">
						<ele>804</ele>
						<time>2019-07-30T10:31:34Z</time>
					</trkpt>
					<trkpt lat="47.892610" lon="6.850640">
						<ele>802</ele>
						<time>2019-07-30T10:31:45Z</time>
					</trkpt>
					<trkpt lat="47.892150" lon="6.850460">
						<ele>798</ele>
						<time>2019-07-30T10:31:56Z</time>
					</trkpt>
					<trkpt lat="47.891670" lon="6.850310">
						<ele>790</ele>
						<time>2019-07-30T10:32:07Z</time>
					</trkpt>
					<trkpt lat="47.890930" lon="6.850170">
						<ele>781</ele>
						<time>2019-07-30T10:32:25Z</time>
					</trkpt>
					<trkpt lat="47.890700" lon="6.850070">
						<ele>778</ele>
						<time>2019-07-30T10:32:30Z</time>
					</trkpt>
					<trkpt lat="47.890370" lon="6.849850">
						<ele>775</ele>
						<time>2019-07-30T10:32:39Z</time>
					</trkpt>
					<trkpt lat="47.890080" lon="6.849470">
						<ele>775</ele>
						<time>2019-07-30T10:32:48Z</time>
					</trkpt>
					<trkpt lat="47.889960" lon="6.849220">
						<ele>776</ele>
						<time>2019-07-30T10:32:53Z</time>
					</trkpt>
					<trkpt lat="47.889740" lon="6.848640">
						<ele>777</ele>
						<time>2019-07-30T10:33:03Z</time>
					</trkpt>
					<trkpt lat="47.889470" lon="6.847760">
						<ele>777</ele>
						<time>2019-07-30T10:33:18Z</time>
					</trkpt>
					<trkpt lat="47.889330" lon="6.847070">
						<ele>779</ele>
						<time>2019-07-30T10:33:29Z</time>
					</trkpt>
					<trkpt lat="47.889300" lon="6.846730">
						<ele>783</ele>
						<time>2019-07-30T10:33:35Z</time>
					</trkpt>
					<trkpt lat="47.889100" lon="6.845820">
						<ele>783</ele>
						<time>2019-07-30T10:33:50Z</time>
					</trkpt>
					<trkpt lat="47.889050" lon="6.844810">
						<ele>786</ele>
						<time>2019-07-30T10:34:06Z</time>
					</trkpt>
					<trkpt lat="47.888990" lon="6.844280">
						<ele>789</ele>
						<time>2019-07-30T10:34:14Z</time>
					</trkpt>
					<trkpt lat="47.888880" lon="6.843930">
						<ele>788</ele>
						<time>2019-07-30T10:34:20Z</time>
					</trkpt>
					<trkpt lat="47.888780" lon="6.843490">
						<ele>790</ele>
						<time>2019-07-30T10:34:27Z</time>
					</trkpt>
					<trkpt lat="47.888610" lon="6.843060">
						<ele>791</ele>
						<time>2019-07-30T10:34:35Z</time>
					</trkpt>
					<trkpt lat="47.888360" lon="6.842640">
						<ele>789</ele>
						<time>2019-07-30T10:34:44Z</time>
					</trkpt>
					<trkpt lat="47.887900" lon="6.842220">
						<ele>783</ele>
						<time>2019-07-30T10:34:57Z</time>
					</trkpt>
					<trkpt lat="47.887810" lon="6.842080">
						<ele>783</ele>
						<time>2019-07-30T10:35:00Z</time>
					</trkpt>
					<trkpt lat="47.887320" lon="6.840900">
						<ele>791</ele>
						<time>2019-07-30T10:35:21Z</time>
					</trkpt>
					<trkpt lat="47.887220" lon="6.840820">
						<ele>792</ele>
						<time>2019-07-30T10:35:24Z</time>
					</trkpt>
					<trkpt lat="47.887050" lon="6.840820">
						<ele>791</ele>
						<time>2019-07-30T10:35:28Z</time>
					</trkpt>
					<trkpt lat="47.886620" lon="6.840930">
						<ele>785</ele>
						<time>2019-07-30T10:35:38Z</time>
					</trkpt>
					<trkpt lat="47.886350" lon="6.841200">
						<ele>779</ele>
						<time>2019-07-30T10:35:46Z</time>
					</trkpt>
					<trkpt lat="47.886070" lon="6.841550">
						<ele>772</ele>
						<time>2019-07-30T10:35:54Z</time>
					</trkpt>
					<trkpt lat="47.885680" lon="6.841900">
						<ele>768</ele>
						<time>2019-07-30T10:36:05Z</time>
					</trkpt>
					<trkpt lat="47.885050" lon="6.842540">
						<ele>757</ele>
						<time>2019-07-30T10:36:23Z</time>
					</trkpt>
					<trkpt lat="47.884670" lon="6.843070">
						<ele>748</ele>
						<time>2019-07-30T10:36:35Z</time>
					</trkpt>
					<trkpt lat="47.884480" lon="6.843640">
						<ele>738</ele>
						<time>2019-07-30T10:36:45Z</time>
					</trkpt>
					<trkpt lat="47.884290" lon="6.844080">
						<ele>734</ele>
						<time>2019-07-30T10:36:53Z</time>
					</trkpt>
					<trkpt lat="47.884060" lon="6.844270">
						<ele>731</ele>
						<time>2019-07-30T10:36:59Z</time>
					</trkpt>
					<trkpt lat="47.884040" lon="6.844430">
						<ele>726</ele>
						<time>2019-07-30T10:37:02Z</time>
					</trkpt>
					<trkpt lat="47.884220" lon="6.844540">
						<ele>723</ele>
						<time>2019-07-30T10:37:06Z</time>
					</trkpt>
					<trkpt lat="47.884450" lon="6.844480">
						<ele>719</ele>
						<time>2019-07-30T10:37:12Z</time>
					</trkpt>
					<trkpt lat="47.884630" lon="6.844330">
						<ele>719</ele>
						<time>2019-07-30T10:37:17Z</time>
					</trkpt>
					<trkpt lat="47.884710" lon="6.844100">
						<ele>722</ele>
						<time>2019-07-30T10:37:21Z</time>
					</trkpt>
					<trkpt lat="47.885010" lon="6.843760">
						<ele>724</ele>
						<time>2019-07-30T10:37:29Z</time>
					</trkpt>
					<trkpt lat="47.885230" lon="6.843800">
						<ele>722</ele>
						<time>2019-07-30T10:37:35Z</time>
					</trkpt>
					<trkpt lat="47.885200" lon="6.843970">
						<ele>718</ele>
						<time>2019-07-30T10:37:37Z</time>
					</trkpt>
					<trkpt lat="47.885110" lon="6.844090">
						<ele>715</ele>
						<time>2019-07-30T10:37:40Z</time>
					</trkpt>
					<trkpt lat="47.884960" lon="6.844430">
						<ele>708</ele>
						<time>2019-07-30T10:37:46Z</time>
					</trkpt>
					<trkpt lat="47.884910" lon="6.845510">
						<ele>683</ele>
						<time>2019-07-30T10:38:03Z</time>
					</trkpt>
					<trkpt lat="47.884710" lon="6.846020">
						<ele>674</ele>
						<time>2019-07-30T10:38:13Z</time>
					</trkpt>
					<trkpt lat="47.884610" lon="6.846190">
						<ele>670</ele>
						<time>2019-07-30T10:38:16Z</time>
					</trkpt>
					<trkpt lat="47.884510" lon="6.846440">
						<ele>663</ele>
						<time>2019-07-30T10:38:21Z</time>
					</trkpt>
					<trkpt lat="47.884540" lon="6.846530">
						<ele>661</ele>
						<time>2019-07-30T10:38:22Z</time>
					</trkpt>
					<trkpt lat="47.884630" lon="6.846620">
						<ele>658</ele>
						<time>2019-07-30T10:38:25Z</time>
					</trkpt>
					<trkpt lat="47.884800" lon="6.846630">
						<ele>657</ele>
						<time>2019-07-30T10:38:29Z</time>
					</trkpt>
					<trkpt lat="47.884970" lon="6.846590">
						<ele>658</ele>
						<time>2019-07-30T10:38:33Z</time>
					</trkpt>
					<trkpt lat="47.885030" lon="6.846650">
						<ele>657</ele>
						<time>2019-07-30T10:38:35Z</time>
					</trkpt>
					<trkpt lat="47.884980" lon="6.846920">
						<ele>652</ele>
						<time>2019-07-30T10:38:39Z</time>
					</trkpt>
					<trkpt lat="47.884920" lon="6.847010">
						<ele>651</ele>
						<time>2019-07-30T10:38:41Z</time>
					</trkpt>
					<trkpt lat="47.884850" lon="6.847080">
						<ele>649</ele>
						<time>2019-07-30T10:38:43Z</time>
					</trkpt>
					<trkpt lat="47.884560" lon="6.847200">
						<ele>647</ele>
						<time>2019-07-30T10:38:50Z</time>
					</trkpt>
					<trkpt lat="47.884190" lon="6.847170">
						<ele>647</ele>
						<time>2019-07-30T10:38:59Z</time>
					</trkpt>
					<trkpt lat="47.883980" lon="6.847180">
						<ele>645</ele>
						<time>2019-07-30T10:39:04Z</time>
					</trkpt>
					<trkpt lat="47.883780" lon="6.847240">
						<ele>642</ele>
						<time>2019-07-30T10:39:08Z</time>
					</trkpt>
					<trkpt lat="47.883320" lon="6.847240">
						<ele>639</ele>
						<time>2019-07-30T10:39:19Z</time>
					</trkpt>
					<trkpt lat="47.883180" lon="6.847210">
						<ele>637</ele>
						<time>2019-07-30T10:39:22Z</time>
					</trkpt>
					<trkpt lat="47.882840" lon="6.847080">
						<ele>633</ele>
						<time>2019-07-30T10:39:31Z</time>
					</trkpt>
					<trkpt lat="47.882750" lon="6.847100">
						<ele>631</ele>
						<time>2019-07-30T10:39:33Z</time>
					</trkpt>
					<trkpt lat="47.882610" lon="6.847230">
						<ele>626</ele>
						<time>2019-07-30T10:39:36Z</time>
					</trkpt>
					<trkpt lat="47.882410" lon="6.847830">
						<ele>617</ele>
						<time>2019-07-30T10:39:47Z</time>
					</trkpt>
					<trkpt lat="47.882620" lon="6.847990">
						<ele>618</ele>
						<time>2019-07-30T10:39:52Z</time>
					</trkpt>
					<trkpt lat="47.883480" lon="6.848800">
						<ele>616</ele>
						<time>2019-07-30T10:40:16Z</time>
					</trkpt>
					<trkpt lat="47.884240" lon="6.849420">
						<ele>614</ele>
						<time>2019-07-30T10:40:36Z</time>
					</trkpt>
					<trkpt lat="47.884520" lon="6.849720">
						<ele>613</ele>
						<time>2019-07-30T10:40:45Z</time>
					</trkpt>
					<trkpt lat="47.884650" lon="6.849980">
						<ele>612</ele>
						<time>2019-07-30T10:40:50Z</time>
					</trkpt>
					<trkpt lat="47.884660" lon="6.850270">
						<ele>610</ele>
						<time>2019-07-30T10:40:54Z</time>
					</trkpt>
					<trkpt lat="47.884610" lon="6.851000">
						<ele>606</ele>
						<time>2019-07-30T10:41:06Z</time>
					</trkpt>
					<trkpt lat="47.884620" lon="6.851840">
						<ele>603</ele>
						<time>2019-07-30T10:41:19Z</time>
					</trkpt>
					<trkpt lat="47.884650" lon="6.852020">
						<ele>602</ele>
						<time>2019-07-30T10:41:22Z</time>
					</trkpt>
					<trkpt lat="47.884790" lon="6.852330">
						<ele>600</ele>
						<time>2019-07-30T10:41:28Z</time>
					</trkpt>
					<trkpt lat="47.885380" lon="6.853120">
						<ele>598</ele>
						<time>2019-07-30T10:41:46Z</time>
					</trkpt>
					<trkpt lat="47.885210" lon="6.853440">
						<ele>597</ele>
						<time>2019-07-30T10:41:52Z</time>
					</trkpt>
					<trkpt lat="47.884990" lon="6.853310">
						<ele>597</ele>
						<time>2019-07-30T10:41:58Z</time>
					</trkpt>
					<trkpt lat="47.884600" lon="6.853140">
						<ele>597</ele>
						<time>2019-07-30T10:42:07Z</time>
					</trkpt>
					<trkpt lat="47.884250" lon="6.853030">
						<ele>597</ele>
						<time>2019-07-30T10:42:16Z</time>
					</trkpt>
					<trkpt lat="47.884080" lon="6.853260">
						<ele>596</ele>
						<time>2019-07-30T10:42:21Z</time>
					</trkpt>
					<trkpt lat="47.883850" lon="6.853750">
						<ele>597</ele>
						<time>2019-07-30T10:42:31Z</time>
					</trkpt>
					<trkpt lat="47.883770" lon="6.854020">
						<ele>598</ele>
						<time>2019-07-30T10:42:35Z</time>
					</trkpt>
					<trkpt lat="47.883850" lon="6.854180">
						<ele>598</ele>
						<time>2019-07-30T10:42:38Z</time>
					</trkpt>
					<trkpt lat="47.883940" lon="6.854280">
						<ele>598</ele>
						<time>2019-07-30T10:42:41Z</time>
					</trkpt>
					<trkpt lat="47.884090" lon="6.854330">
						<ele>598</ele>
						<time>2019-07-30T10:42:45Z</time>
					</trkpt>
					<trkpt lat="47.884200" lon="6.854400">
						<ele>598</ele>
						<time>2019-07-30T10:42:47Z</time>
					</trkpt>
					<trkpt lat="47.884450" lon="6.854630">
						<ele>598</ele>
						<time>2019-07-30T10:42:54Z</time>
					</trkpt>
					<trkpt lat="47.884400" lon="6.854780">
						<ele>598</ele>
						<time>2019-07-30T10:42:57Z</time>
					</trkpt>
					<trkpt lat="47.884250" lon="6.854810">
						<ele>599</ele>
						<time>2019-07-30T10:43:00Z</time>
					</trkpt>
					<trkpt lat="47.884210" lon="6.854910">
						<ele>599</ele>
						<time>2019-07-30T10:43:02Z</time>
					</trkpt>
					</trkseg>
				</trk>
			</gpx>
